sensor_id;sensor_type;location;lat;lon;timestamp;P1;durP1;ratioP1;P2;durP2;ratioP2
7383;SDS011;3733;47.994;8.820;2023-04-16T00:00:30;1.50;;;1.40;;
7383;SDS011;3733;47.994;8.820;2023-04-16T00:02:56;1.70;;;1.60;;
7383;SDS011;3733;47.994;8.820;2023-04-16T00:05:22;1.50;;;1.40;;
7383;SDS011;3733;47.994;8.820;2023-04-16T00:07:47;1.60;;;1.50;;
7383;SDS011;3733;47.994;8.820;2023-04-16T00:10:15;2.63;;;1.30;;
7383;SDS011;3733;47.994;8.820;2023-04-16T00:12:41;1.50;;;1.40;;
7383;SDS011;3733;47.994;8.820;2023-04-16T00:15:07;1.57;;;1.47;;
7383;SDS011;3733;47.994;8.820;2023-04-16T00:17:33;1.57;;;1.47;;
7383;SDS011;3733;47.994;8.820;2023-04-16T00:19:58;1.50;;;1.43;;
7383;SDS011;3733;47.994;8.820;2023-04-16T00:22:24;1.23;;;1.13;;
7383;SDS011;3733;47.994;8.820;2023-04-16T00:24:50;1.50;;;1.40;;
7383;SDS011;3733;47.994;8.820;2023-04-16T00:27:15;1.00;;;1.00;;
7383;SDS011;3733;47.994;8.820;2023-04-16T00:29:42;1.47;;;1.37;;
7383;SDS011;3733;47.994;8.820;2023-04-16T00:32:08;1.30;;;1.20;;
7383;SDS011;3733;47.994;8.820;2023-04-16T00:34:33;1.80;;;1.70;;
7383;SDS011;3733;47.994;8.820;2023-04-16T00:36:59;1.60;;;1.50;;
7383;SDS011;3733;47.994;8.820;2023-04-16T00:39:25;1.70;;;1.60;;
7383;SDS011;3733;47.994;8.820;2023-04-16T00:41:50;2.07;;;1.83;;
7383;SDS011;3733;47.994;8.820;2023-04-16T00:44:16;1.73;;;1.60;;
7383;SDS011;3733;47.994;8.820;2023-04-16T00:46:41;1.37;;;1.27;;
7383;SDS011;3733;47.994;8.820;2023-04-16T00:49:08;2.13;;;2.00;;
7383;SDS011;3733;47.994;8.820;2023-04-16T00:51:34;1.53;;;1.40;;
7383;SDS011;3733;47.994;8.820;2023-04-16T00:54:00;1.70;;;1.60;;
7383;SDS011;3733;47.994;8.820;2023-04-16T00:56:26;1.83;;;1.67;;
7383;SDS011;3733;47.994;8.820;2023-04-16T00:58:53;2.00;;;1.80;;
7383;SDS011;3733;47.994;8.820;2023-04-16T01:01:19;2.03;;;1.70;;
7383;SDS011;3733;47.994;8.820;2023-04-16T01:03:45;1.90;;;1.80;;
7383;SDS011;3733;47.994;8.820;2023-04-16T01:06:12;1.90;;;1.80;;
7383;SDS011;3733;47.994;8.820;2023-04-16T01:08:38;2.80;;;1.87;;
7383;SDS011;3733;47.994;8.820;2023-04-16T01:11:04;1.83;;;1.73;;
7383;SDS011;3733;47.994;8.820;2023-04-16T01:13:30;2.10;;;1.93;;
7383;SDS011;3733;47.994;8.820;2023-04-16T01:15:56;1.80;;;1.70;;
7383;SDS011;3733;47.994;8.820;2023-04-16T01:18:22;1.80;;;1.70;;
7383;SDS011;3733;47.994;8.820;2023-04-16T01:20:49;1.90;;;1.70;;
7383;SDS011;3733;47.994;8.820;2023-04-16T01:23:15;1.90;;;1.80;;
7383;SDS011;3733;47.994;8.820;2023-04-16T01:25:45;1.77;;;1.67;;
7383;SDS011;3733;47.994;8.820;2023-04-16T01:28:11;1.90;;;1.77;;
7383;SDS011;3733;47.994;8.820;2023-04-16T01:30:37;2.90;;;2.10;;
7383;SDS011;3733;47.994;8.820;2023-04-16T01:33:04;2.93;;;2.20;;
7383;SDS011;3733;47.994;8.820;2023-04-16T01:35:31;2.00;;;1.90;;
7383;SDS011;3733;47.994;8.820;2023-04-16T01:37:56;1.50;;;1.40;;
7383;SDS011;3733;47.994;8.820;2023-04-16T01:40:22;1.83;;;1.73;;
7383;SDS011;3733;47.994;8.820;2023-04-16T01:42:47;1.73;;;1.63;;
7383;SDS011;3733;47.994;8.820;2023-04-16T01:45:13;1.87;;;1.70;;
7383;SDS011;3733;47.994;8.820;2023-04-16T01:47:39;1.60;;;1.50;;
7383;SDS011;3733;47.994;8.820;2023-04-16T01:50:04;1.53;;;1.43;;
7383;SDS011;3733;47.994;8.820;2023-04-16T01:52:31;1.27;;;1.20;;
7383;SDS011;3733;47.994;8.820;2023-04-16T01:54:56;1.70;;;1.60;;
7383;SDS011;3733;47.994;8.820;2023-04-16T01:57:22;1.37;;;1.27;;
7383;SDS011;3733;47.994;8.820;2023-04-16T01:59:48;1.57;;;1.47;;
7383;SDS011;3733;47.994;8.820;2023-04-16T02:02:14;1.40;;;1.30;;
7383;SDS011;3733;47.994;8.820;2023-04-16T02:04:41;1.67;;;1.57;;
7383;SDS011;3733;47.994;8.820;2023-04-16T02:07:08;1.57;;;1.47;;
7383;SDS011;3733;47.994;8.820;2023-04-16T02:09:34;1.70;;;1.60;;
7383;SDS011;3733;47.994;8.820;2023-04-16T02:12:01;1.90;;;1.43;;
7383;SDS011;3733;47.994;8.820;2023-04-16T02:14:30;1.70;;;1.60;;
7383;SDS011;3733;47.994;8.820;2023-04-16T02:16:56;1.40;;;1.30;;
7383;SDS011;3733;47.994;8.820;2023-04-16T02:19:22;2.27;;;1.90;;
7383;SDS011;3733;47.994;8.820;2023-04-16T02:21:47;1.70;;;1.60;;
7383;SDS011;3733;47.994;8.820;2023-04-16T02:24:15;1.83;;;1.73;;
7383;SDS011;3733;47.994;8.820;2023-04-16T02:26:40;2.73;;;2.50;;
7383;SDS011;3733;47.994;8.820;2023-04-16T02:29:06;1.90;;;1.80;;
7383;SDS011;3733;47.994;8.820;2023-04-16T02:31:31;3.70;;;1.67;;
7383;SDS011;3733;47.994;8.820;2023-04-16T02:33:57;2.83;;;1.77;;
7383;SDS011;3733;47.994;8.820;2023-04-16T02:36:23;2.23;;;1.57;;
7383;SDS011;3733;47.994;8.820;2023-04-16T02:38:49;5.70;;;2.23;;
7383;SDS011;3733;47.994;8.820;2023-04-16T02:41:15;2.03;;;1.83;;
7383;SDS011;3733;47.994;8.820;2023-04-16T02:43:41;1.73;;;1.63;;
7383;SDS011;3733;47.994;8.820;2023-04-16T02:46:06;1.70;;;1.60;;
7383;SDS011;3733;47.994;8.820;2023-04-16T02:48:32;1.60;;;1.50;;
7383;SDS011;3733;47.994;8.820;2023-04-16T02:50:57;1.63;;;1.53;;
7383;SDS011;3733;47.994;8.820;2023-04-16T02:53:23;1.80;;;1.70;;
7383;SDS011;3733;47.994;8.820;2023-04-16T02:55:49;1.70;;;1.60;;
7383;SDS011;3733;47.994;8.820;2023-04-16T02:58:19;2.00;;;1.90;;
7383;SDS011;3733;47.994;8.820;2023-04-16T03:00:45;2.10;;;2.00;;
7383;SDS011;3733;47.994;8.820;2023-04-16T03:03:11;1.70;;;1.60;;
7383;SDS011;3733;47.994;8.820;2023-04-16T03:05:37;1.70;;;1.60;;
7383;SDS011;3733;47.994;8.820;2023-04-16T03:08:02;1.80;;;1.70;;
7383;SDS011;3733;47.994;8.820;2023-04-16T03:10:28;2.40;;;2.20;;
7383;SDS011;3733;47.994;8.820;2023-04-16T03:12:54;2.00;;;1.80;;
7383;SDS011;3733;47.994;8.820;2023-04-16T03:15:19;3.23;;;2.70;;
7383;SDS011;3733;47.994;8.820;2023-04-16T03:17:45;2.23;;;2.03;;
7383;SDS011;3733;47.994;8.820;2023-04-16T03:20:11;2.70;;;2.20;;
7383;SDS011;3733;47.994;8.820;2023-04-16T03:22:39;3.17;;;2.27;;
7383;SDS011;3733;47.994;8.820;2023-04-16T03:25:05;2.80;;;2.50;;
7383;SDS011;3733;47.994;8.820;2023-04-16T03:27:32;2.60;;;2.30;;
7383;SDS011;3733;47.994;8.820;2023-04-16T03:29:58;1.90;;;1.80;;
7383;SDS011;3733;47.994;8.820;2023-04-16T03:32:23;2.10;;;1.90;;
7383;SDS011;3733;47.994;8.820;2023-04-16T03:34:49;1.77;;;1.67;;
7383;SDS011;3733;47.994;8.820;2023-04-16T03:37:15;1.57;;;1.47;;
7383;SDS011;3733;47.994;8.820;2023-04-16T03:39:40;1.70;;;1.60;;
7383;SDS011;3733;47.994;8.820;2023-04-16T03:42:06;1.50;;;1.40;;
7383;SDS011;3733;47.994;8.820;2023-04-16T03:44:32;2.33;;;1.70;;
7383;SDS011;3733;47.994;8.820;2023-04-16T03:46:58;2.47;;;1.50;;
7383;SDS011;3733;47.994;8.820;2023-04-16T03:49:23;2.73;;;1.57;;
7383;SDS011;3733;47.994;8.820;2023-04-16T03:51:49;1.73;;;1.63;;
7383;SDS011;3733;47.994;8.820;2023-04-16T03:54:15;1.40;;;1.30;;
7383;SDS011;3733;47.994;8.820;2023-04-16T03:56:40;1.70;;;1.60;;
7383;SDS011;3733;47.994;8.820;2023-04-16T03:59:06;1.57;;;1.37;;
7383;SDS011;3733;47.994;8.820;2023-04-16T04:01:32;1.47;;;1.40;;
7383;SDS011;3733;47.994;8.820;2023-04-16T04:03:58;1.63;;;1.53;;
7383;SDS011;3733;47.994;8.820;2023-04-16T04:06:24;1.37;;;1.27;;
7383;SDS011;3733;47.994;8.820;2023-04-16T04:08:49;1.40;;;1.30;;
7383;SDS011;3733;47.994;8.820;2023-04-16T04:11:15;1.63;;;1.53;;
7383;SDS011;3733;47.994;8.820;2023-04-16T04:13:40;1.73;;;1.63;;
7383;SDS011;3733;47.994;8.820;2023-04-16T04:16:06;1.80;;;1.47;;
7383;SDS011;3733;47.994;8.820;2023-04-16T04:18:32;1.57;;;1.47;;
7383;SDS011;3733;47.994;8.820;2023-04-16T04:20:57;1.63;;;1.30;;
7383;SDS011;3733;47.994;8.820;2023-04-16T04:23:23;1.60;;;1.50;;
7383;SDS011;3733;47.994;8.820;2023-04-16T04:25:48;3.57;;;1.60;;
7383;SDS011;3733;47.994;8.820;2023-04-16T04:28:14;1.70;;;1.60;;
7383;SDS011;3733;47.994;8.820;2023-04-16T04:30:40;1.70;;;1.60;;
7383;SDS011;3733;47.994;8.820;2023-04-16T04:33:06;1.40;;;1.30;;
7383;SDS011;3733;47.994;8.820;2023-04-16T04:35:31;3.33;;;1.87;;
7383;SDS011;3733;47.994;8.820;2023-04-16T04:37:57;1.87;;;1.70;;
7383;SDS011;3733;47.994;8.820;2023-04-16T04:40:23;1.50;;;1.40;;
7383;SDS011;3733;47.994;8.820;2023-04-16T04:42:48;1.63;;;1.53;;
7383;SDS011;3733;47.994;8.820;2023-04-16T04:45:14;1.73;;;1.60;;
7383;SDS011;3733;47.994;8.820;2023-04-16T04:47:40;1.70;;;1.60;;
7383;SDS011;3733;47.994;8.820;2023-04-16T04:50:06;1.73;;;1.63;;
7383;SDS011;3733;47.994;8.820;2023-04-16T04:52:32;1.77;;;1.67;;
7383;SDS011;3733;47.994;8.820;2023-04-16T04:54:57;1.50;;;1.40;;
7383;SDS011;3733;47.994;8.820;2023-04-16T04:57:23;1.77;;;1.67;;
7383;SDS011;3733;47.994;8.820;2023-04-16T04:59:48;1.50;;;1.40;;
7383;SDS011;3733;47.994;8.820;2023-04-16T05:02:14;2.07;;;1.83;;
7383;SDS011;3733;47.994;8.820;2023-04-16T05:04:40;1.97;;;1.87;;
7383;SDS011;3733;47.994;8.820;2023-04-16T05:07:05;1.60;;;1.50;;
7383;SDS011;3733;47.994;8.820;2023-04-16T05:09:31;2.00;;;1.90;;
7383;SDS011;3733;47.994;8.820;2023-04-16T05:11:56;1.73;;;1.63;;
7383;SDS011;3733;47.994;8.820;2023-04-16T05:14:22;2.40;;;1.90;;
7383;SDS011;3733;47.994;8.820;2023-04-16T05:16:48;2.23;;;2.03;;
7383;SDS011;3733;47.994;8.820;2023-04-16T05:19:15;2.80;;;1.70;;
7383;SDS011;3733;47.994;8.820;2023-04-16T05:21:40;2.00;;;1.90;;
7383;SDS011;3733;47.994;8.820;2023-04-16T05:24:06;1.90;;;1.70;;
7383;SDS011;3733;47.994;8.820;2023-04-16T05:26:31;2.63;;;2.30;;
7383;SDS011;3733;47.994;8.820;2023-04-16T05:28:57;2.07;;;1.90;;
7383;SDS011;3733;47.994;8.820;2023-04-16T05:31:23;1.83;;;1.73;;
7383;SDS011;3733;47.994;8.820;2023-04-16T05:33:48;2.20;;;2.00;;
7383;SDS011;3733;47.994;8.820;2023-04-16T05:36:14;2.83;;;1.97;;
7383;SDS011;3733;47.994;8.820;2023-04-16T05:38:39;2.67;;;2.40;;
7383;SDS011;3733;47.994;8.820;2023-04-16T05:41:05;1.90;;;1.77;;
7383;SDS011;3733;47.994;8.820;2023-04-16T05:43:30;2.80;;;2.50;;
7383;SDS011;3733;47.994;8.820;2023-04-16T05:45:56;2.50;;;2.17;;
7383;SDS011;3733;47.994;8.820;2023-04-16T05:48:22;2.53;;;2.00;;
7383;SDS011;3733;47.994;8.820;2023-04-16T05:50:47;2.63;;;2.20;;
7383;SDS011;3733;47.994;8.820;2023-04-16T05:53:13;2.10;;;2.00;;
7383;SDS011;3733;47.994;8.820;2023-04-16T05:55:39;2.57;;;2.13;;
7383;SDS011;3733;47.994;8.820;2023-04-16T05:58:05;2.83;;;2.10;;
7383;SDS011;3733;47.994;8.820;2023-04-16T06:00:33;2.83;;;2.33;;
7383;SDS011;3733;47.994;8.820;2023-04-16T06:02:59;2.67;;;2.20;;
7383;SDS011;3733;47.994;8.820;2023-04-16T06:05:25;4.40;;;2.17;;
7383;SDS011;3733;47.994;8.820;2023-04-16T06:07:51;2.80;;;2.43;;
7383;SDS011;3733;47.994;8.820;2023-04-16T06:10:17;3.00;;;2.37;;
7383;SDS011;3733;47.994;8.820;2023-04-16T06:12:42;4.30;;;2.83;;
7383;SDS011;3733;47.994;8.820;2023-04-16T06:15:08;2.60;;;2.40;;
7383;SDS011;3733;47.994;8.820;2023-04-16T06:17:34;2.93;;;2.23;;
7383;SDS011;3733;47.994;8.820;2023-04-16T06:20:00;2.40;;;2.20;;
7383;SDS011;3733;47.994;8.820;2023-04-16T06:22:25;2.47;;;2.27;;
7383;SDS011;3733;47.994;8.820;2023-04-16T06:24:51;2.40;;;2.20;;
7383;SDS011;3733;47.994;8.820;2023-04-16T06:27:17;2.43;;;2.23;;
7383;SDS011;3733;47.994;8.820;2023-04-16T06:29:43;2.17;;;1.97;;
7383;SDS011;3733;47.994;8.820;2023-04-16T06:32:08;2.40;;;1.90;;
7383;SDS011;3733;47.994;8.820;2023-04-16T06:34:34;2.40;;;2.07;;
7383;SDS011;3733;47.994;8.820;2023-04-16T06:37:01;3.37;;;2.87;;
7383;SDS011;3733;47.994;8.820;2023-04-16T06:39:27;3.07;;;2.60;;
7383;SDS011;3733;47.994;8.820;2023-04-16T06:41:52;2.53;;;2.33;;
7383;SDS011;3733;47.994;8.820;2023-04-16T06:44:18;3.63;;;2.90;;
7383;SDS011;3733;47.994;8.820;2023-04-16T06:46:43;2.53;;;2.20;;
7383;SDS011;3733;47.994;8.820;2023-04-16T06:49:09;3.00;;;2.70;;
7383;SDS011;3733;47.994;8.820;2023-04-16T06:51:35;3.40;;;2.80;;
7383;SDS011;3733;47.994;8.820;2023-04-16T06:54:00;3.57;;;2.80;;
7383;SDS011;3733;47.994;8.820;2023-04-16T06:56:26;3.23;;;2.93;;
7383;SDS011;3733;47.994;8.820;2023-04-16T06:58:52;3.47;;;3.17;;
7383;SDS011;3733;47.994;8.820;2023-04-16T07:01:17;4.50;;;3.63;;
7383;SDS011;3733;47.994;8.820;2023-04-16T07:03:43;4.50;;;3.43;;
7383;SDS011;3733;47.994;8.820;2023-04-16T07:06:08;3.17;;;2.87;;
7383;SDS011;3733;47.994;8.820;2023-04-16T07:08:34;3.73;;;2.80;;
7383;SDS011;3733;47.994;8.820;2023-04-16T07:11:00;5.63;;;3.53;;
7383;SDS011;3733;47.994;8.820;2023-04-16T07:13:26;4.70;;;3.40;;
7383;SDS011;3733;47.994;8.820;2023-04-16T07:15:51;3.20;;;2.50;;
7383;SDS011;3733;47.994;8.820;2023-04-16T07:18:17;4.33;;;3.10;;
7383;SDS011;3733;47.994;8.820;2023-04-16T07:20:43;4.80;;;3.00;;
7383;SDS011;3733;47.994;8.820;2023-04-16T07:23:09;3.60;;;3.03;;
7383;SDS011;3733;47.994;8.820;2023-04-16T07:25:34;3.37;;;2.60;;
7383;SDS011;3733;47.994;8.820;2023-04-16T07:28:00;3.83;;;3.20;;
7383;SDS011;3733;47.994;8.820;2023-04-16T07:30:27;5.87;;;3.10;;
7383;SDS011;3733;47.994;8.820;2023-04-16T07:32:58;4.20;;;2.93;;
7383;SDS011;3733;47.994;8.820;2023-04-16T07:35:24;2.80;;;2.60;;
7383;SDS011;3733;47.994;8.820;2023-04-16T07:37:50;4.30;;;3.17;;
7383;SDS011;3733;47.994;8.820;2023-04-16T07:40:15;5.63;;;3.40;;
7383;SDS011;3733;47.994;8.820;2023-04-16T07:42:41;3.67;;;2.70;;
7383;SDS011;3733;47.994;8.820;2023-04-16T07:45:07;3.60;;;3.10;;
7383;SDS011;3733;47.994;8.820;2023-04-16T07:47:33;3.60;;;2.60;;
7383;SDS011;3733;47.994;8.820;2023-04-16T07:49:59;3.20;;;2.80;;
7383;SDS011;3733;47.994;8.820;2023-04-16T07:52:25;3.70;;;2.93;;
7383;SDS011;3733;47.994;8.820;2023-04-16T07:54:50;3.30;;;2.50;;
7383;SDS011;3733;47.994;8.820;2023-04-16T07:57:16;4.57;;;2.30;;
7383;SDS011;3733;47.994;8.820;2023-04-16T07:59:41;3.30;;;2.70;;
7383;SDS011;3733;47.994;8.820;2023-04-16T08:02:08;10.80;;;3.50;;
7383;SDS011;3733;47.994;8.820;2023-04-16T08:04:37;2.37;;;2.07;;
7383;SDS011;3733;47.994;8.820;2023-04-16T08:07:03;3.43;;;2.40;;
7383;SDS011;3733;47.994;8.820;2023-04-16T08:09:28;2.57;;;2.37;;
7383;SDS011;3733;47.994;8.820;2023-04-16T08:11:54;2.73;;;2.30;;
7383;SDS011;3733;47.994;8.820;2023-04-16T08:14:19;2.50;;;2.20;;
7383;SDS011;3733;47.994;8.820;2023-04-16T08:16:45;2.40;;;2.20;;
7383;SDS011;3733;47.994;8.820;2023-04-16T08:19:11;2.90;;;2.57;;
7383;SDS011;3733;47.994;8.820;2023-04-16T08:21:36;2.13;;;2.00;;
7383;SDS011;3733;47.994;8.820;2023-04-16T08:24:02;3.23;;;2.80;;
7383;SDS011;3733;47.994;8.820;2023-04-16T08:26:28;2.07;;;1.87;;
7383;SDS011;3733;47.994;8.820;2023-04-16T08:28:53;4.00;;;2.40;;
7383;SDS011;3733;47.994;8.820;2023-04-16T08:31:19;2.50;;;1.97;;
7383;SDS011;3733;47.994;8.820;2023-04-16T08:33:45;2.53;;;1.90;;
7383;SDS011;3733;47.994;8.820;2023-04-16T08:36:10;2.90;;;2.30;;
7383;SDS011;3733;47.994;8.820;2023-04-16T08:38:36;4.40;;;2.07;;
7383;SDS011;3733;47.994;8.820;2023-04-16T08:41:02;2.27;;;2.07;;
7383;SDS011;3733;47.994;8.820;2023-04-16T08:43:32;2.70;;;2.10;;
7383;SDS011;3733;47.994;8.820;2023-04-16T08:45:58;2.60;;;2.30;;
7383;SDS011;3733;47.994;8.820;2023-04-16T08:48:25;4.50;;;2.93;;
7383;SDS011;3733;47.994;8.820;2023-04-16T08:50:56;2.40;;;2.20;;
7383;SDS011;3733;47.994;8.820;2023-04-16T08:53:25;1.97;;;1.77;;
7383;SDS011;3733;47.994;8.820;2023-04-16T08:55:59;1.80;;;1.70;;
7383;SDS011;3733;47.994;8.820;2023-04-16T08:58:30;2.17;;;1.97;;
7383;SDS011;3733;47.994;8.820;2023-04-16T09:00:59;2.47;;;2.10;;
7383;SDS011;3733;47.994;8.820;2023-04-16T09:03:27;3.30;;;2.17;;
7383;SDS011;3733;47.994;8.820;2023-04-16T09:05:54;3.10;;;2.27;;
7383;SDS011;3733;47.994;8.820;2023-04-16T09:08:23;1.90;;;1.70;;
7383;SDS011;3733;47.994;8.820;2023-04-16T09:10:50;3.37;;;2.37;;
7383;SDS011;3733;47.994;8.820;2023-04-16T09:13:15;3.13;;;2.83;;
7383;SDS011;3733;47.994;8.820;2023-04-16T09:15:44;2.47;;;2.27;;
7383;SDS011;3733;47.994;8.820;2023-04-16T09:18:10;3.30;;;2.70;;
7383;SDS011;3733;47.994;8.820;2023-04-16T09:20:36;3.73;;;2.97;;
7383;SDS011;3733;47.994;8.820;2023-04-16T09:23:03;3.70;;;2.77;;
7383;SDS011;3733;47.994;8.820;2023-04-16T09:25:32;3.20;;;2.80;;
7383;SDS011;3733;47.994;8.820;2023-04-16T09:27:59;3.53;;;2.57;;
7383;SDS011;3733;47.994;8.820;2023-04-16T09:30:25;4.90;;;3.40;;
7383;SDS011;3733;47.994;8.820;2023-04-16T09:32:53;3.87;;;3.20;;
7383;SDS011;3733;47.994;8.820;2023-04-16T09:35:44;5.10;;;3.43;;
7383;SDS011;3733;47.994;8.820;2023-04-16T09:38:11;3.67;;;3.00;;
7383;SDS011;3733;47.994;8.820;2023-04-16T09:40:36;4.63;;;3.33;;
7383;SDS011;3733;47.994;8.820;2023-04-16T09:48:29;5.10;;;3.70;;
7383;SDS011;3733;47.994;8.820;2023-04-16T09:50:56;4.80;;;3.70;;
7383;SDS011;3733;47.994;8.820;2023-04-16T09:53:30;3.70;;;3.23;;
7383;SDS011;3733;47.994;8.820;2023-04-16T09:55:56;4.00;;;3.57;;
7383;SDS011;3733;47.994;8.820;2023-04-16T09:58:23;4.40;;;3.67;;
7383;SDS011;3733;47.994;8.820;2023-04-16T10:00:50;5.87;;;3.60;;
7383;SDS011;3733;47.994;8.820;2023-04-16T10:03:41;5.10;;;4.00;;
7383;SDS011;3733;47.994;8.820;2023-04-16T10:06:14;7.00;;;3.90;;
7383;SDS011;3733;47.994;8.820;2023-04-16T10:08:45;5.53;;;4.30;;
7383;SDS011;3733;47.994;8.820;2023-04-16T10:11:11;8.73;;;5.03;;
7383;SDS011;3733;47.994;8.820;2023-04-16T10:13:38;6.17;;;4.57;;
7383;SDS011;3733;47.994;8.820;2023-04-16T10:16:04;8.03;;;5.37;;
7383;SDS011;3733;47.994;8.820;2023-04-16T10:18:32;8.93;;;5.17;;
7383;SDS011;3733;47.994;8.820;2023-04-16T10:20:59;9.30;;;5.27;;
7383;SDS011;3733;47.994;8.820;2023-04-16T10:23:26;9.50;;;5.57;;
7383;SDS011;3733;47.994;8.820;2023-04-16T10:25:53;9.33;;;6.50;;
7383;SDS011;3733;47.994;8.820;2023-04-16T10:28:19;10.03;;;5.87;;
7383;SDS011;3733;47.994;8.820;2023-04-16T10:30:46;9.20;;;6.20;;
7383;SDS011;3733;47.994;8.820;2023-04-16T10:33:20;7.60;;;6.13;;
7383;SDS011;3733;47.994;8.820;2023-04-16T10:38:34;9.60;;;6.50;;
7383;SDS011;3733;47.994;8.820;2023-04-16T10:41:03;9.47;;;6.20;;
7383;SDS011;3733;47.994;8.820;2023-04-16T10:43:31;11.77;;;7.70;;
7383;SDS011;3733;47.994;8.820;2023-04-16T10:48:48;11.07;;;7.10;;
7383;SDS011;3733;47.994;8.820;2023-04-16T10:56:38;16.00;;;9.10;;
7383;SDS011;3733;47.994;8.820;2023-04-16T10:59:05;19.27;;;9.77;;
7383;SDS011;3733;47.994;8.820;2023-04-16T11:01:32;14.30;;;9.30;;
7383;SDS011;3733;47.994;8.820;2023-04-16T11:06:58;17.80;;;9.47;;
7383;SDS011;3733;47.994;8.820;2023-04-16T11:12:39;14.10;;;8.53;;
7383;SDS011;3733;47.994;8.820;2023-04-16T11:20:08;14.97;;;10.00;;
7383;SDS011;3733;47.994;8.820;2023-04-16T11:22:39;18.53;;;11.47;;
7383;SDS011;3733;47.994;8.820;2023-04-16T11:25:06;19.40;;;11.67;;
7383;SDS011;3733;47.994;8.820;2023-04-16T11:27:32;21.37;;;13.07;;
7383;SDS011;3733;47.994;8.820;2023-04-16T11:29:58;18.97;;;12.00;;
7383;SDS011;3733;47.994;8.820;2023-04-16T11:32:31;18.20;;;12.10;;
7383;SDS011;3733;47.994;8.820;2023-04-16T11:34:58;22.40;;;12.80;;
7383;SDS011;3733;47.994;8.820;2023-04-16T11:37:34;24.93;;;13.60;;
7383;SDS011;3733;47.994;8.820;2023-04-16T11:40:02;26.23;;;12.70;;
7383;SDS011;3733;47.994;8.820;2023-04-16T11:42:31;21.83;;;12.37;;
7383;SDS011;3733;47.994;8.820;2023-04-16T11:44:58;20.10;;;13.00;;
7383;SDS011;3733;47.994;8.820;2023-04-16T11:47:27;23.00;;;12.70;;
7383;SDS011;3733;47.994;8.820;2023-04-16T11:49:54;22.13;;;13.20;;
7383;SDS011;3733;47.994;8.820;2023-04-16T11:54:52;22.43;;;12.67;;
7383;SDS011;3733;47.994;8.820;2023-04-16T11:57:25;21.90;;;12.87;;
7383;SDS011;3733;47.994;8.820;2023-04-16T11:59:55;24.87;;;12.80;;
7383;SDS011;3733;47.994;8.820;2023-04-16T12:07:55;28.93;;;13.93;;
7383;SDS011;3733;47.994;8.820;2023-04-16T12:10:25;28.73;;;15.90;;
7383;SDS011;3733;47.994;8.820;2023-04-16T12:12:51;24.27;;;12.60;;
7383;SDS011;3733;47.994;8.820;2023-04-16T12:15:17;21.37;;;12.50;;
7383;SDS011;3733;47.994;8.820;2023-04-16T12:17:42;21.43;;;12.50;;
7383;SDS011;3733;47.994;8.820;2023-04-16T12:20:09;19.30;;;12.47;;
7383;SDS011;3733;47.994;8.820;2023-04-16T12:22:36;24.20;;;12.47;;
7383;SDS011;3733;47.994;8.820;2023-04-16T12:25:07;18.30;;;11.27;;
7383;SDS011;3733;47.994;8.820;2023-04-16T12:30:14;17.23;;;11.27;;
7383;SDS011;3733;47.994;8.820;2023-04-16T12:32:41;17.03;;;10.73;;
7383;SDS011;3733;47.994;8.820;2023-04-16T12:35:08;23.43;;;12.13;;
7383;SDS011;3733;47.994;8.820;2023-04-16T12:37:35;19.20;;;11.80;;
7383;SDS011;3733;47.994;8.820;2023-04-16T12:40:01;22.30;;;13.37;;
7383;SDS011;3733;47.994;8.820;2023-04-16T12:42:29;20.80;;;11.50;;
7383;SDS011;3733;47.994;8.820;2023-04-16T12:44:59;17.90;;;11.00;;
7383;SDS011;3733;47.994;8.820;2023-04-16T12:47:26;19.07;;;12.23;;
7383;SDS011;3733;47.994;8.820;2023-04-16T12:49:51;20.27;;;11.60;;
7383;SDS011;3733;47.994;8.820;2023-04-16T12:52:17;19.20;;;10.90;;
7383;SDS011;3733;47.994;8.820;2023-04-16T12:54:43;17.17;;;10.30;;
7383;SDS011;3733;47.994;8.820;2023-04-16T12:57:08;19.80;;;11.40;;
7383;SDS011;3733;47.994;8.820;2023-04-16T12:59:35;17.43;;;10.80;;
7383;SDS011;3733;47.994;8.820;2023-04-16T13:02:01;16.07;;;9.83;;
7383;SDS011;3733;47.994;8.820;2023-04-16T13:04:27;19.50;;;10.43;;
7383;SDS011;3733;47.994;8.820;2023-04-16T13:06:52;17.67;;;10.57;;
7383;SDS011;3733;47.994;8.820;2023-04-16T13:09:18;15.40;;;10.23;;
7383;SDS011;3733;47.994;8.820;2023-04-16T13:11:44;16.93;;;10.50;;
7383;SDS011;3733;47.994;8.820;2023-04-16T13:14:10;17.90;;;10.70;;
7383;SDS011;3733;47.994;8.820;2023-04-16T13:16:35;14.60;;;9.40;;
7383;SDS011;3733;47.994;8.820;2023-04-16T13:19:02;16.40;;;9.90;;
7383;SDS011;3733;47.994;8.820;2023-04-16T13:21:28;16.13;;;10.63;;
7383;SDS011;3733;47.994;8.820;2023-04-16T13:23:54;16.43;;;10.70;;
7383;SDS011;3733;47.994;8.820;2023-04-16T13:26:20;19.30;;;10.30;;
7383;SDS011;3733;47.994;8.820;2023-04-16T13:28:46;19.10;;;10.60;;
7383;SDS011;3733;47.994;8.820;2023-04-16T13:31:11;16.47;;;9.93;;
7383;SDS011;3733;47.994;8.820;2023-04-16T13:33:39;15.77;;;9.90;;
7383;SDS011;3733;47.994;8.820;2023-04-16T13:36:05;15.13;;;9.53;;
7383;SDS011;3733;47.994;8.820;2023-04-16T13:38:31;16.40;;;10.17;;
7383;SDS011;3733;47.994;8.820;2023-04-16T13:40:56;14.73;;;9.93;;
7383;SDS011;3733;47.994;8.820;2023-04-16T13:43:22;18.60;;;9.67;;
7383;SDS011;3733;47.994;8.820;2023-04-16T13:45:48;15.97;;;9.80;;
7383;SDS011;3733;47.994;8.820;2023-04-16T13:48:13;16.43;;;9.40;;
7383;SDS011;3733;47.994;8.820;2023-04-16T13:50:39;21.10;;;10.80;;
7383;SDS011;3733;47.994;8.820;2023-04-16T13:53:05;15.90;;;10.13;;
7383;SDS011;3733;47.994;8.820;2023-04-16T13:55:30;17.90;;;10.40;;
7383;SDS011;3733;47.994;8.820;2023-04-16T13:57:56;19.33;;;10.07;;
7383;SDS011;3733;47.994;8.820;2023-04-16T14:00:22;15.00;;;9.57;;
7383;SDS011;3733;47.994;8.820;2023-04-16T14:02:49;14.53;;;9.03;;
7383;SDS011;3733;47.994;8.820;2023-04-16T14:05:15;17.60;;;9.97;;
7383;SDS011;3733;47.994;8.820;2023-04-16T14:07:40;16.90;;;10.17;;
7383;SDS011;3733;47.994;8.820;2023-04-16T14:10:06;18.93;;;10.27;;
7383;SDS011;3733;47.994;8.820;2023-04-16T14:12:33;16.40;;;9.73;;
7383;SDS011;3733;47.994;8.820;2023-04-16T14:14:58;14.87;;;9.40;;
7383;SDS011;3733;47.994;8.820;2023-04-16T14:17:25;18.60;;;9.23;;
7383;SDS011;3733;47.994;8.820;2023-04-16T14:19:51;17.20;;;9.93;;
7383;SDS011;3733;47.994;8.820;2023-04-16T14:22:17;14.70;;;9.03;;
7383;SDS011;3733;47.994;8.820;2023-04-16T14:24:43;12.83;;;7.53;;
7383;SDS011;3733;47.994;8.820;2023-04-16T14:27:08;14.77;;;8.63;;
7383;SDS011;3733;47.994;8.820;2023-04-16T14:29:34;13.97;;;8.10;;
7383;SDS011;3733;47.994;8.820;2023-04-16T14:32:00;12.27;;;7.23;;
7383;SDS011;3733;47.994;8.820;2023-04-16T14:34:26;15.90;;;8.60;;
7383;SDS011;3733;47.994;8.820;2023-04-16T14:36:51;15.10;;;7.70;;
7383;SDS011;3733;47.994;8.820;2023-04-16T14:39:17;9.93;;;7.10;;
7383;SDS011;3733;47.994;8.820;2023-04-16T14:41:43;14.83;;;8.80;;
7383;SDS011;3733;47.994;8.820;2023-04-16T14:44:08;15.90;;;9.33;;
7383;SDS011;3733;47.994;8.820;2023-04-16T14:46:34;14.80;;;8.50;;
7383;SDS011;3733;47.994;8.820;2023-04-16T14:49:00;12.50;;;7.50;;
7383;SDS011;3733;47.994;8.820;2023-04-16T14:51:25;18.43;;;8.90;;
7383;SDS011;3733;47.994;8.820;2023-04-16T14:53:51;12.97;;;7.83;;
7383;SDS011;3733;47.994;8.820;2023-04-16T14:56:17;12.67;;;6.77;;
7383;SDS011;3733;47.994;8.820;2023-04-16T14:58:42;15.20;;;7.57;;
7383;SDS011;3733;47.994;8.820;2023-04-16T15:01:08;15.03;;;7.37;;
7383;SDS011;3733;47.994;8.820;2023-04-16T15:03:34;9.40;;;6.67;;
7383;SDS011;3733;47.994;8.820;2023-04-16T15:06:00;9.93;;;6.30;;
7383;SDS011;3733;47.994;8.820;2023-04-16T15:08:25;10.53;;;6.50;;
7383;SDS011;3733;47.994;8.820;2023-04-16T15:10:51;11.30;;;6.83;;
7383;SDS011;3733;47.994;8.820;2023-04-16T15:13:17;10.50;;;6.13;;
7383;SDS011;3733;47.994;8.820;2023-04-16T15:15:43;13.43;;;6.90;;
7383;SDS011;3733;47.994;8.820;2023-04-16T15:18:08;10.57;;;6.20;;
7383;SDS011;3733;47.994;8.820;2023-04-16T15:20:34;10.90;;;6.13;;
7383;SDS011;3733;47.994;8.820;2023-04-16T15:23:00;8.07;;;5.60;;
7383;SDS011;3733;47.994;8.820;2023-04-16T15:25:26;9.30;;;5.87;;
7383;SDS011;3733;47.994;8.820;2023-04-16T15:27:52;9.43;;;5.47;;
7383;SDS011;3733;47.994;8.820;2023-04-16T15:30:17;9.23;;;5.93;;
7383;SDS011;3733;47.994;8.820;2023-04-16T15:32:43;15.00;;;5.40;;
7383;SDS011;3733;47.994;8.820;2023-04-16T15:35:09;8.17;;;4.70;;
7383;SDS011;3733;47.994;8.820;2023-04-16T15:37:35;6.30;;;4.60;;
7383;SDS011;3733;47.994;8.820;2023-04-16T15:40:01;5.73;;;4.30;;
7383;SDS011;3733;47.994;8.820;2023-04-16T15:42:29;6.53;;;4.60;;